createdAt,value
2019-05-18T00:01:14.690Z,19.67
2019-05-18T00:03:43.762Z,21.10
2019-05-18T00:06:13.826Z,20.33
2019-05-18T00:08:41.940Z,19.73
2019-05-18T00:11:10.081Z,19.42
2019-05-18T00:13:38.260Z,19.87
2019-05-18T00:16:06.402Z,21.48
2019-05-18T00:18:34.518Z,20.30
2019-05-18T00:21:02.715Z,19.90
2019-05-18T00:23:30.915Z,20.00
2019-05-18T00:25:59.101Z,20.97
2019-05-18T00:28:27.236Z,21.87
2019-05-18T00:30:55.454Z,18.77
2019-05-18T00:33:23.603Z,18.67
2019-05-18T00:35:51.870Z,20.00
2019-05-18T00:38:20.773Z,18.73
2019-05-18T00:40:48.972Z,18.03
2019-05-18T00:43:17.158Z,18.37
2019-05-18T00:45:45.295Z,18.73
2019-05-18T00:48:13.515Z,18.80
2019-05-18T00:50:41.738Z,21.57
2019-05-18T00:53:09.954Z,20.30
2019-05-18T00:55:38.137Z,17.42
2019-05-18T00:58:06.257Z,18.03
2019-05-18T01:00:34.857Z,18.93
2019-05-18T01:03:02.975Z,17.90
2019-05-18T01:05:31.190Z,18.00
2019-05-18T01:07:59.371Z,17.57
2019-05-18T01:10:27.720Z,17.43
2019-05-18T01:12:56.682Z,18.95
2019-05-18T01:15:24.860Z,30.20
2019-05-18T01:17:57.344Z,22.23
2019-05-18T01:20:24.130Z,20.02
2019-05-18T01:22:52.989Z,20.60
2019-05-18T01:25:21.185Z,19.43
2019-05-18T01:27:49.404Z,20.97
2019-05-18T01:30:18.445Z,20.53
2019-05-18T01:32:46.649Z,21.63
2019-05-18T01:35:14.934Z,19.37
2019-05-18T01:37:43.088Z,19.37
2019-05-18T01:40:12.568Z,17.63
2019-05-18T01:42:40.728Z,20.93
2019-05-18T01:45:16.804Z,17.48
2019-05-18T01:47:39.156Z,18.07
2019-05-18T01:50:07.441Z,17.93
2019-05-18T01:52:36.151Z,18.93
2019-05-18T01:55:05.467Z,19.40
2019-05-18T01:57:33.606Z,18.20
2019-05-18T02:00:01.799Z,18.40
2019-05-18T02:02:30.705Z,17.43
2019-05-18T02:04:58.824Z,20.87
2019-05-18T02:07:27.012Z,18.97
2019-05-18T02:09:55.231Z,19.07
2019-05-18T02:12:23.410Z,18.47
2019-05-18T02:14:51.566Z,17.37
2019-05-18T02:17:19.697Z,19.67
2019-05-18T02:19:47.842Z,17.53
2019-05-18T02:22:15.968Z,19.27
2019-05-18T02:24:44.075Z,19.23
2019-05-18T02:27:12.255Z,18.17
2019-05-18T02:29:40.396Z,18.00
2019-05-18T02:32:08.492Z,19.40
2019-05-18T02:34:36.679Z,18.63
2019-05-18T02:37:05.632Z,19.23
2019-05-18T02:39:33.757Z,18.63
2019-05-18T02:42:01.992Z,18.27
2019-05-18T02:44:30.109Z,18.93
2019-05-18T02:46:58.254Z,18.75
2019-05-18T02:49:26.399Z,19.57
2019-05-18T02:51:54.533Z,18.27
2019-05-18T02:54:23.386Z,21.67
2019-05-18T02:56:51.673Z,20.03
2019-05-18T02:59:19.805Z,18.37
2019-05-18T03:01:47.962Z,22.27
2019-05-18T03:04:16.170Z,19.57
2019-05-18T03:06:44.461Z,19.12
2019-05-18T03:09:12.591Z,20.37
2019-05-18T03:11:40.739Z,18.07
2019-05-18T03:14:08.902Z,20.57
2019-05-18T03:16:37.838Z,19.93
2019-05-18T03:19:08.717Z,19.90
2019-05-18T03:21:35.866Z,19.53
2019-05-18T03:24:04.109Z,17.98
2019-05-18T03:26:32.300Z,20.87
2019-05-18T03:29:00.441Z,20.23
2019-05-18T03:31:28.550Z,21.50
2019-05-18T03:33:57.414Z,18.30
2019-05-18T03:36:25.529Z,21.87
2019-05-18T03:38:53.673Z,19.67
2019-05-18T03:41:21.927Z,21.07
2019-05-18T03:43:50.054Z,19.07
2019-05-18T03:46:18.311Z,18.77
2019-05-18T03:48:46.593Z,19.40
2019-05-18T03:51:14.751Z,19.23
2019-05-18T03:53:42.874Z,19.47
2019-05-18T03:56:11.747Z,17.93
2019-05-18T03:58:39.849Z,18.50
2019-05-18T04:01:09.244Z,20.20
2019-05-18T04:03:37.386Z,20.85
2019-05-18T04:06:30.833Z,18.90
2019-05-18T04:08:58.937Z,18.70
2019-05-18T04:11:27.359Z,20.23
2019-05-18T04:13:55.469Z,18.77
2019-05-18T04:16:23.671Z,18.87
2019-05-18T04:18:51.858Z,18.70
2019-05-18T04:21:20.060Z,18.73
2019-05-18T04:23:48.998Z,19.20
2019-05-18T04:26:17.161Z,18.43
2019-05-18T04:28:45.392Z,18.62
2019-05-18T04:31:13.517Z,20.73
2019-05-18T04:33:41.762Z,20.10
2019-05-18T04:36:09.873Z,16.90
2019-05-18T04:38:38.085Z,19.40
2019-05-18T04:41:06.242Z,20.73
2019-05-18T04:43:34.327Z,19.00
2019-05-18T04:46:03.285Z,21.12
2019-05-18T04:48:31.528Z,21.80
2019-05-18T04:50:59.921Z,21.80
2019-05-18T04:53:28.071Z,19.27
2019-05-18T04:55:56.190Z,20.90
2019-05-18T04:58:24.329Z,22.52
2019-05-18T05:00:52.436Z,21.00
2019-05-18T05:03:21.122Z,18.17
2019-05-18T05:05:49.224Z,20.07
2019-05-18T05:08:20.559Z,19.27
2019-05-18T05:10:48.701Z,21.93
2019-05-18T05:13:16.845Z,23.20
2019-05-18T05:15:44.988Z,19.93
2019-05-18T05:18:13.237Z,20.50
2019-05-18T05:20:41.510Z,20.57
2019-05-18T05:23:09.627Z,20.47
2019-05-18T05:25:37.836Z,21.50
2019-05-18T05:28:05.955Z,22.87
2019-05-18T05:30:34.113Z,20.30
2019-05-18T05:33:02.294Z,21.97
2019-05-18T05:35:30.428Z,20.93
2019-05-18T05:37:58.590Z,20.00
2019-05-18T05:40:26.847Z,20.67
2019-05-18T05:42:55.037Z,21.10
2019-05-18T05:45:23.665Z,21.27
2019-05-18T05:47:54.060Z,22.60
2019-05-18T05:50:34.548Z,21.17
2019-05-18T05:52:51.693Z,20.47
2019-05-18T05:55:19.828Z,21.12
2019-05-18T05:57:52.698Z,20.10
2019-05-18T06:00:20.882Z,19.97
2019-05-18T06:02:49.083Z,19.63
2019-05-18T06:05:17.238Z,19.83
2019-05-18T06:07:45.349Z,19.97
2019-05-18T06:10:14.399Z,19.80
2019-05-18T06:12:42.634Z,20.53
2019-05-18T06:15:11.038Z,19.90
2019-05-18T06:17:39.298Z,19.52
2019-05-18T06:20:07.764Z,19.40
2019-05-18T06:22:35.946Z,19.83
2019-05-18T06:30:15.486Z,19.60
2019-05-18T06:37:51.271Z,19.12
2019-05-18T06:40:19.537Z,19.83
2019-05-18T06:42:47.671Z,19.77
2019-05-18T06:45:15.852Z,20.33
2019-05-18T06:47:44.017Z,17.80
2019-05-18T07:08:14.408Z,17.80
2019-05-18T07:10:43.994Z,16.57
2019-05-18T07:13:16.567Z,18.60
2019-05-18T07:15:44.740Z,21.57
2019-05-18T07:18:15.498Z,20.30
2019-05-18T07:20:43.704Z,21.87
2019-05-18T07:23:11.832Z,21.83
2019-05-18T07:28:13.843Z,21.17
2019-05-18T07:30:42.448Z,23.33
2019-05-18T07:33:10.659Z,24.47
2019-05-18T07:35:38.770Z,27.60
2019-05-18T07:38:06.886Z,23.03
2019-05-18T07:40:35.058Z,23.17
2019-05-18T07:43:03.203Z,19.67
2019-05-18T07:45:31.372Z,21.60
2019-05-18T07:48:00.166Z,31.12
2019-05-18T07:50:28.473Z,19.37
2019-05-18T07:52:58.122Z,19.03
2019-05-18T07:55:26.366Z,18.70
2019-05-18T07:57:54.617Z,18.83
2019-05-18T08:00:22.834Z,18.67
2019-05-18T08:02:50.937Z,20.00
2019-05-18T08:05:19.143Z,15.55
2019-05-18T08:07:47.361Z,16.53
2019-05-18T08:10:17.104Z,14.67
2019-05-18T08:12:45.235Z,13.70
2019-05-18T08:15:16.184Z,15.17
2019-05-18T08:17:44.363Z,15.93
2019-05-18T08:20:12.580Z,19.47
2019-05-18T08:22:40.743Z,12.57
2019-05-18T08:25:08.889Z,15.20
2019-05-18T08:27:37.111Z,18.25
2019-05-18T08:30:06.926Z,10.87
2019-05-18T08:32:35.091Z,9.90
2019-05-18T08:35:06.587Z,8.90
2019-05-18T08:37:34.810Z,23.30
2019-05-18T08:40:04.471Z,19.73
2019-05-18T08:42:32.606Z,10.23
2019-05-18T08:45:00.730Z,10.85
2019-05-18T08:47:28.915Z,10.10
2019-05-18T08:49:57.079Z,12.55
2019-05-18T08:52:25.223Z,12.13
2019-05-18T08:54:53.346Z,13.10
2019-05-18T08:57:21.475Z,10.13
2019-05-18T08:59:49.590Z,10.33
2019-05-18T09:02:17.720Z,11.93
2019-05-18T09:04:45.812Z,12.60
2019-05-18T09:07:13.957Z,11.73
2019-05-18T09:09:42.289Z,14.70
2019-05-18T09:12:10.788Z,15.87
2019-05-18T09:14:38.913Z,18.03
2019-05-18T09:17:07.604Z,12.90
2019-05-18T09:19:35.731Z,12.73
2019-05-18T09:22:06.090Z,11.93
2019-05-18T09:24:34.257Z,13.47
2019-05-18T09:27:02.423Z,12.97
2019-05-18T09:29:31.168Z,10.93
2019-05-18T09:32:00.859Z,13.33
2019-05-18T09:34:29.194Z,12.03
2019-05-18T09:36:57.395Z,12.50
2019-05-18T09:39:25.602Z,13.50
2019-05-18T09:41:53.733Z,15.27
2019-05-18T09:44:22.005Z,12.93
2019-05-18T09:46:50.299Z,14.03
2019-05-18T09:49:18.498Z,13.03
2019-05-18T09:51:46.712Z,11.73
2019-05-18T09:54:14.820Z,13.97
2019-05-18T09:56:42.963Z,12.90
2019-05-18T09:59:11.147Z,10.50
2019-05-18T10:01:39.260Z,12.87
2019-05-18T10:04:07.394Z,14.67
2019-05-18T10:06:35.589Z,11.80
2019-05-18T10:09:08.349Z,13.18
2019-05-18T10:11:38.593Z,15.20
2019-05-18T10:14:07.185Z,10.93
2019-05-18T10:16:35.314Z,13.60
2019-05-18T10:19:03.488Z,12.37
2019-05-18T10:21:32.367Z,12.87
2019-05-18T10:24:00.563Z,10.70
2019-05-18T10:26:28.699Z,10.93
2019-05-18T10:28:56.976Z,11.07
2019-05-18T10:31:25.189Z,12.07
2019-05-18T10:33:53.429Z,12.17
2019-05-18T10:36:21.633Z,10.63
2019-05-18T10:38:49.744Z,12.30
2019-05-18T10:41:17.894Z,9.60
2019-05-18T10:43:46.876Z,10.13
2019-05-18T10:46:15.417Z,10.10
2019-05-18T10:48:43.631Z,11.18
2019-05-18T10:51:13.477Z,8.50
2019-05-18T10:53:43.265Z,8.90
2019-05-18T10:56:11.570Z,7.37
2019-05-18T10:58:39.681Z,8.23
2019-05-18T11:01:07.996Z,8.53
2019-05-18T11:03:36.144Z,8.88
2019-05-18T11:06:05.907Z,7.43
2019-05-18T11:08:34.016Z,8.30
2019-05-18T11:11:02.161Z,8.73
2019-05-18T11:13:30.334Z,8.38
2019-05-18T11:15:58.431Z,7.35
2019-05-18T11:18:26.557Z,8.43
2019-05-18T11:20:54.737Z,7.97
2019-05-18T11:23:23.223Z,7.65
2019-05-18T11:25:51.354Z,7.83
2019-05-18T11:28:19.470Z,9.20
2019-05-18T11:30:48.645Z,11.28
2019-05-18T11:33:16.911Z,10.87
2019-05-18T11:35:45.027Z,10.48
2019-05-18T11:38:14.009Z,9.73
2019-05-18T11:40:42.219Z,7.80
2019-05-18T11:43:10.371Z,7.75
2019-05-18T11:45:38.561Z,7.70
2019-05-18T11:48:06.693Z,6.00
2019-05-18T11:50:35.456Z,6.77
2019-05-18T11:53:03.655Z,7.25
2019-05-18T11:55:31.923Z,5.20
2019-05-18T11:58:00.131Z,6.62
2019-05-18T12:00:28.809Z,6.78
2019-05-18T12:02:57.061Z,6.93
2019-05-18T12:05:25.216Z,6.75
2019-05-18T12:07:53.548Z,6.30
2019-05-18T12:10:21.773Z,6.53
2019-05-18T12:12:50.055Z,6.23
2019-05-18T12:15:19.952Z,5.97
2019-05-18T12:17:48.301Z,6.33
2019-05-18T12:20:16.401Z,6.57
2019-05-18T12:22:44.533Z,5.92
2019-05-18T12:25:13.642Z,5.17
2019-05-18T12:27:41.821Z,7.20
2019-05-18T12:30:10.563Z,5.87
2019-05-18T12:32:38.765Z,6.12
2019-05-18T12:35:26.284Z,5.40
2019-05-18T12:37:54.414Z,4.95
2019-05-18T12:40:22.775Z,5.80
2019-05-18T12:42:51.007Z,5.30
2019-05-18T12:45:19.696Z,4.85
2019-05-18T12:47:47.866Z,5.28
2019-05-18T12:50:16.682Z,4.83
2019-05-18T12:52:49.360Z,3.93
2019-05-18T12:55:15.153Z,5.62
2019-05-18T12:57:43.412Z,4.20
2019-05-18T13:00:12.500Z,4.85
2019-05-18T13:02:40.670Z,3.70
2019-05-18T13:05:09.164Z,4.37
2019-05-18T13:07:37.440Z,4.95
2019-05-18T13:10:07.238Z,4.15
2019-05-18T13:12:35.444Z,4.15
2019-05-18T13:15:05.184Z,4.57
2019-05-18T13:17:33.300Z,3.70
2019-05-18T13:20:01.536Z,3.97
2019-05-18T13:22:29.671Z,3.55
2019-05-18T13:24:57.783Z,5.23
2019-05-18T13:27:38.367Z,3.62
2019-05-18T13:29:55.797Z,4.07
2019-05-18T13:32:23.940Z,4.00
2019-05-18T13:34:52.103Z,3.80
2019-05-18T13:37:20.214Z,4.05
2019-05-18T13:39:48.312Z,3.35
2019-05-18T13:42:16.431Z,3.83
2019-05-18T13:44:44.659Z,4.15
2019-05-18T13:47:12.874Z,3.37
2019-05-18T13:49:41.051Z,4.03
2019-05-18T13:52:09.247Z,3.75
2019-05-18T13:54:37.418Z,2.80
2019-05-18T13:57:05.603Z,4.17
2019-05-18T13:59:33.836Z,4.20
2019-05-18T14:02:02.107Z,3.30
2019-05-18T14:04:30.300Z,5.85
2019-05-18T14:06:58.485Z,3.92
2019-05-18T14:09:26.687Z,3.42
2019-05-18T14:11:54.843Z,3.37
2019-05-18T14:14:23.027Z,3.55
2019-05-18T14:16:51.222Z,4.53
2019-05-18T14:19:19.360Z,9.70
2019-05-18T14:21:48.257Z,4.67
2019-05-18T14:24:17.983Z,4.87
2019-05-18T14:26:46.146Z,5.45
2019-05-18T14:29:14.295Z,5.90
2019-05-18T14:31:42.460Z,5.22
2019-05-18T14:34:10.638Z,4.70
2019-05-18T14:36:38.862Z,5.08
2019-05-18T14:39:08.676Z,5.42
2019-05-18T14:41:36.767Z,4.40
2019-05-18T14:44:04.991Z,3.57
2019-05-18T14:46:33.218Z,4.62
2019-05-18T14:49:01.883Z,6.30
2019-05-18T14:51:30.081Z,5.25
2019-05-18T14:53:58.294Z,5.35
2019-05-18T14:56:26.548Z,4.80
2019-05-18T14:58:54.692Z,4.40
2019-05-18T15:01:22.817Z,4.50
2019-05-18T15:03:51.024Z,4.23
2019-05-18T15:06:24.933Z,4.10
2019-05-18T15:08:53.080Z,4.10
2019-05-18T15:11:21.298Z,4.12
2019-05-18T15:13:52.193Z,4.47
2019-05-18T15:16:25.018Z,6.15
2019-05-18T15:18:53.193Z,4.30
2019-05-18T15:21:21.331Z,4.12
2019-05-18T15:23:50.269Z,4.58
2019-05-18T15:26:18.427Z,4.43
2019-05-18T15:28:46.618Z,4.25
2019-05-18T15:31:14.740Z,4.15
2019-05-18T15:33:42.895Z,30.45
2019-05-18T15:36:11.410Z,5.10
2019-05-18T15:38:39.540Z,5.15
2019-05-18T15:41:07.989Z,5.75
2019-05-18T15:43:36.084Z,4.30
2019-05-18T15:46:04.277Z,3.70
2019-05-18T15:48:32.402Z,3.42
2019-05-18T15:51:00.652Z,3.15
2019-05-18T15:53:29.041Z,4.53
2019-05-18T15:56:05.405Z,4.87
2019-05-18T15:58:27.872Z,9.73
2019-05-18T16:00:55.994Z,6.00
2019-05-18T16:03:24.922Z,6.30
2019-05-18T16:05:53.107Z,5.83
2019-05-18T16:08:21.303Z,6.50
2019-05-18T16:10:49.426Z,10.40
2019-05-18T16:13:17.553Z,8.27
2019-05-18T16:15:45.770Z,6.63
2019-05-18T16:18:13.964Z,6.50
2019-05-18T16:20:42.376Z,4.27
2019-05-18T16:23:10.558Z,5.13
2019-05-18T16:25:38.708Z,5.30
2019-05-18T16:28:06.959Z,6.20
2019-05-18T16:30:35.170Z,6.57
2019-05-18T16:33:03.461Z,11.15
2019-05-18T16:35:31.700Z,4.70
2019-05-18T16:38:00.622Z,6.90
2019-05-18T16:40:28.756Z,4.83
2019-05-18T16:42:56.897Z,5.33
2019-05-18T16:45:25.131Z,5.75
2019-05-18T16:47:53.320Z,6.03
2019-05-18T16:50:21.526Z,6.47
2019-05-18T16:52:49.726Z,7.33
2019-05-18T16:55:17.981Z,6.28
2019-05-18T16:57:46.171Z,8.07
2019-05-18T17:00:16.197Z,8.23
2019-05-18T17:02:44.875Z,9.40
2019-05-18T17:05:13.759Z,10.60
2019-05-18T17:07:41.913Z,9.98
2019-05-18T17:10:10.156Z,9.47
2019-05-18T17:12:38.325Z,11.18
2019-05-18T17:15:07.055Z,8.83
2019-05-18T17:17:36.030Z,8.40
2019-05-18T17:20:05.498Z,9.50
2019-05-18T17:22:33.654Z,8.27
2019-05-18T17:25:01.894Z,9.93
2019-05-18T17:27:30.119Z,8.90
2019-05-18T17:29:58.297Z,8.73
2019-05-18T17:32:26.474Z,7.83
2019-05-18T17:34:54.622Z,9.03
2019-05-18T17:37:22.832Z,8.87
2019-05-18T17:39:51.788Z,16.43
2019-05-18T17:42:19.905Z,10.17
2019-05-18T17:44:48.054Z,10.53
2019-05-18T17:47:16.189Z,12.80
2019-05-18T17:49:44.359Z,10.73
2019-05-18T17:52:12.504Z,10.88
2019-05-18T17:54:40.688Z,11.53
2019-05-18T17:57:09.379Z,10.90
2019-05-18T17:59:37.822Z,10.30
2019-05-18T18:02:06.059Z,11.20
2019-05-18T18:04:34.326Z,24.07
2019-05-18T18:07:02.536Z,14.27
2019-05-18T18:09:30.730Z,13.50
2019-05-18T18:11:58.967Z,15.97
2019-05-18T18:14:27.238Z,15.10
2019-05-18T18:16:55.377Z,13.17
2019-05-18T18:19:25.255Z,13.50
2019-05-18T18:21:53.536Z,19.10
2019-05-18T18:24:21.682Z,13.50
2019-05-18T18:26:49.883Z,13.20
2019-05-18T18:29:18.015Z,26.93
2019-05-18T18:31:46.210Z,11.47
2019-05-18T18:34:14.456Z,11.83
2019-05-18T18:36:44.371Z,11.43
2019-05-18T18:39:12.494Z,16.90
2019-05-18T18:41:41.404Z,15.47
2019-05-18T18:44:09.634Z,14.07
2019-05-18T18:46:37.816Z,12.50
2019-05-18T18:49:06.048Z,12.60
2019-05-18T18:51:34.290Z,13.23
2019-05-18T18:54:04.864Z,12.63
2019-05-18T18:56:33.011Z,12.97
2019-05-18T18:59:03.397Z,14.23
2019-05-18T19:01:31.534Z,13.60
2019-05-18T19:03:59.682Z,14.13
2019-05-18T19:06:27.904Z,12.57
2019-05-18T19:08:56.109Z,12.93
2019-05-18T19:11:24.318Z,17.67
2019-05-18T19:13:52.455Z,14.90
2019-05-18T19:16:21.437Z,14.87
2019-05-18T19:18:49.727Z,13.57
2019-05-18T19:21:17.875Z,13.07
2019-05-18T19:23:46.051Z,18.50
2019-05-18T19:26:14.279Z,14.80
2019-05-18T19:28:42.567Z,16.27
2019-05-18T19:31:10.703Z,11.80
2019-05-18T19:33:38.936Z,12.73
2019-05-18T19:36:07.154Z,15.20
2019-05-18T19:38:36.098Z,14.97
2019-05-18T19:41:04.369Z,15.73
2019-05-18T19:43:32.536Z,15.57
2019-05-18T19:46:00.672Z,16.07
2019-05-18T19:48:28.836Z,19.67
2019-05-18T19:50:56.962Z,19.00
2019-05-18T19:53:25.202Z,18.37
2019-05-18T19:55:53.876Z,20.67
2019-05-18T19:58:22.045Z,19.63
2019-05-18T20:00:50.246Z,19.03
2019-05-18T20:03:18.432Z,20.50
2019-05-18T20:05:46.606Z,26.30
2019-05-18T20:08:14.867Z,22.45
2019-05-18T20:10:43.566Z,23.10
2019-05-18T20:13:12.443Z,22.25
2019-05-18T20:15:40.701Z,22.07
2019-05-18T20:18:08.924Z,21.17
2019-05-18T20:20:37.084Z,21.27
2019-05-18T20:23:08.159Z,23.13
2019-05-18T20:25:35.264Z,21.57
2019-05-18T20:28:03.580Z,23.70
2019-05-18T20:30:31.713Z,23.13
2019-05-18T20:32:59.921Z,26.80
2019-05-18T20:35:28.252Z,23.07
2019-05-18T20:37:56.535Z,23.07
2019-05-18T20:40:24.792Z,23.43
2019-05-18T20:42:52.981Z,23.60
2019-05-18T20:45:21.142Z,23.90
2019-05-18T20:47:49.271Z,26.20
2019-05-18T20:50:17.450Z,26.63
2019-05-18T20:52:45.580Z,26.77
2019-05-18T20:55:13.878Z,26.43
2019-05-18T20:57:42.044Z,44.30
2019-05-18T21:00:10.511Z,30.67
2019-05-18T21:02:38.638Z,32.40
2019-05-18T21:05:07.004Z,26.52
2019-05-18T21:07:35.137Z,26.00
2019-05-18T21:10:05.256Z,24.77
2019-05-18T21:12:33.381Z,25.53
2019-05-18T21:15:01.637Z,24.60
2019-05-18T21:17:29.908Z,21.93
2019-05-18T21:19:58.133Z,19.60
2019-05-18T21:22:26.264Z,18.03
2019-05-18T21:24:54.449Z,18.60
2019-05-18T21:27:22.671Z,19.82
2019-05-18T21:29:50.841Z,18.57
2019-05-18T21:32:19.410Z,17.25
2019-05-18T21:34:47.585Z,18.10
2019-05-18T21:37:15.717Z,18.80
2019-05-18T21:39:43.918Z,18.12
2019-05-18T21:42:12.066Z,17.43
2019-05-18T21:44:40.177Z,14.80
2019-05-18T21:47:08.383Z,17.83
2019-05-18T21:49:36.587Z,18.47
2019-05-18T21:52:04.761Z,18.47
2019-05-18T21:54:32.935Z,15.60
2019-05-18T21:57:01.062Z,19.43
2019-05-18T21:59:29.255Z,17.80
2019-05-18T22:01:57.386Z,17.20
2019-05-18T22:04:25.568Z,18.23
2019-05-18T22:06:54.514Z,17.27
2019-05-18T22:09:22.693Z,19.67
2019-05-18T22:11:51.652Z,21.20
2019-05-18T22:14:19.822Z,16.67
2019-05-18T22:16:47.975Z,16.87
2019-05-18T22:19:16.121Z,15.27
2019-05-18T22:21:44.365Z,17.77
2019-05-18T22:24:18.820Z,16.12
2019-05-18T22:26:47.090Z,16.77
2019-05-18T22:29:16.042Z,17.45
2019-05-18T22:31:44.256Z,16.20
2019-05-18T22:34:12.483Z,16.47
2019-05-18T22:36:40.685Z,18.30
2019-05-18T22:39:08.919Z,17.37
2019-05-18T22:41:37.049Z,17.52
2019-05-18T22:44:05.303Z,18.07
2019-05-18T22:46:33.451Z,20.73
2019-05-18T22:49:01.596Z,18.57
2019-05-18T22:51:29.795Z,17.63
2019-05-18T22:53:57.990Z,18.90
2019-05-18T22:56:26.960Z,16.83
2019-05-18T22:58:55.147Z,16.50
2019-05-18T23:01:23.375Z,18.67
2019-05-18T23:03:51.891Z,22.03
2019-05-18T23:06:20.318Z,18.17
2019-05-18T23:08:48.631Z,18.83
2019-05-18T23:11:16.887Z,17.80
2019-05-18T23:13:45.039Z,23.23
2019-05-18T23:16:13.169Z,27.95
2019-05-18T23:18:55.638Z,28.93
2019-05-18T23:21:11.257Z,25.02
2019-05-18T23:23:39.443Z,27.27
2019-05-18T23:26:11.354Z,25.57
2019-05-18T23:28:37.588Z,24.60
2019-05-18T23:31:06.568Z,25.17
2019-05-18T23:33:34.730Z,24.87
2019-05-18T23:36:02.961Z,26.40
2019-05-18T23:38:31.173Z,25.67
2019-05-18T23:40:59.386Z,25.37
2019-05-18T23:43:27.590Z,26.37
2019-05-18T23:45:56.289Z,28.93
2019-05-18T23:48:24.411Z,30.07
2019-05-18T23:50:52.576Z,33.07
2019-05-18T23:53:21.491Z,33.57
2019-05-18T23:55:49.621Z,32.77
2019-05-18T23:58:17.813Z,28.30
